Rishon LeZiyyon, Israel
Current Conditions -  °F | °C
As of 3:50 PM on Friday 24 Oct 2014 (Local Time) from LLBG Reporting Station
Clear Clear  
Wind Chill: 82°   Ceiling: Unl
Heat Index: 82°   Visibility: 6mi
Dew Point: 52°   Wind: 14mph
Humidity: 35%   Direction: 300°WNW
Pressure: 30"   Gusts: NA
Location:  31.96°N, 34.8°E
Report Text: LLBG 241250Z 30012KT CAVOK 28/11 Q1016 NOSIG
Loading
Personal Weather Stations






























Interactive Weather Map
Tropical Storm Tracking
New forecast layout! Learn more

10-Day Weather Forecast

Advertisements
Track Severe Weather on mobile